Time;durP1;ratioP1;P1;durP2;ratioP2;P2;SDS_P1;SDS_P2;PMS_P1;PMS_P2;Temp;Humidity;BMP_temperature;BMP_pressure;BME280_temperature;BME280_humidity;BME280_pressure;Samples;Min_cycle;Max_cycle;Signal;HPM_P1;HPM_P2
2022/11/04 07:24:22;;;;;;;3.92;0.90;;;;;;;;;;5003579;28;20105;-85
2022/11/04 07:26:47;;;;;;;1.23;1.00;;;;;;;;;;5002898;28;20044;-85
2022/11/04 07:29:13;;;;;;;1.05;0.95;;;;;;;;;;4998938;28;20112;-85
2022/11/04 07:31:38;;;;;;;2.00;1.17;;;;;;;;;;4986433;28;20018;-84
2022/11/04 07:34:04;;;;;;;1.77;1.33;;;;;;;;;;4998204;28;20072;-84
2022/11/04 07:36:29;;;;;;;3.13;1.23;;;;;;;;;;5000196;28;20057;-86
2022/11/04 07:38:54;;;;;;;1.50;1.17;;;;;;;;;;4997655;28;20081;-84
2022/11/04 07:41:20;;;;;;;1.88;1.20;;;;;;;;;;4997932;28;20072;-84
2022/11/04 07:43:50;;;;;;;2.95;1.17;;;;;;;;;;4996665;28;20034;-86
2022/11/04 07:46:16;;;;;;;0.95;0.85;;;;;;;;;;4997451;28;20026;-87
2022/11/04 07:48:42;;;;;;;2.50;1.27;;;;;;;;;;5015768;28;20444;-86
2022/11/04 07:51:10;;;;;;;1.27;0.90;;;;;;;;;;5010235;28;20033;-85
2022/11/04 07:53:35;;;;;;;1.20;1.10;;;;;;;;;;5004666;28;20396;-87
2022/11/04 07:56:05;;;;;;;4.45;1.00;;;;;;;;;;4995662;28;20025;-86
2022/11/04 07:58:31;;;;;;;2.80;0.80;;;;;;;;;;4998057;28;20033;-86
2022/11/04 08:01:02;;;;;;;3.22;0.90;;;;;;;;;;4995976;28;20037;-85
2022/11/04 08:03:27;;;;;;;1.15;0.88;;;;;;;;;;5006633;28;20045;-85
2022/11/04 08:06:01;;;;;;;4.53;1.17;;;;;;;;;;4999767;28;20423;-86
2022/11/04 08:08:27;;;;;;;1.40;0.73;;;;;;;;;;4996884;28;20026;-85
2022/11/04 08:10:59;;;;;;;9.32;1.10;;;;;;;;;;5014908;28;20025;-85
2022/11/04 08:13:32;;;;;;;1.90;0.77;;;;;;;;;;4980948;28;20050;-86
2022/11/04 08:16:04;;;;;;;1.08;0.98;;;;;;;;;;4990527;28;20119;-86
2022/11/04 08:18:31;;;;;;;1.02;0.95;;;;;;;;;;4995799;28;20378;-88
2022/11/04 08:20:57;;;;;;;1.80;0.90;;;;;;;;;;5012817;28;20044;-85
2022/11/04 08:23:22;;;;;;;1.70;0.90;;;;;;;;;;4999004;28;20030;-84
2022/11/04 08:25:47;;;;;;;2.45;1.25;;;;;;;;;;4998310;28;20032;-84
2022/11/04 08:28:16;;;;;;;1.83;1.40;;;;;;;;;;5015682;28;20032;-85
2022/11/04 08:31:13;;;;;;;1.42;0.80;;;;;;;;;;5016388;28;20085;-85
2022/11/04 08:33:39;;;;;;;1.58;0.80;;;;;;;;;;4993354;28;20034;-85
2022/11/04 08:36:18;;;;;;;5.35;1.20;;;;;;;;;;5018892;28;20026;-85
2022/11/04 08:38:44;;;;;;;1.48;1.10;;;;;;;;;;4983127;28;20029;-87
2022/11/04 08:41:12;;;;;;;7.00;1.48;;;;;;;;;;5015575;28;20033;-86
2022/11/04 08:43:37;;;;;;;1.95;1.00;;;;;;;;;;4996787;28;20022;-86
2022/11/04 08:46:06;;;;;;;2.10;1.50;;;;;;;;;;4999608;28;20022;-84
2022/11/04 08:48:33;;;;;;;3.10;1.30;;;;;;;;;;4997384;28;20076;-86
2022/11/04 08:50:58;;;;;;;3.15;1.23;;;;;;;;;;4997725;28;20084;-86
2022/11/04 08:53:25;;;;;;;1.63;1.10;;;;;;;;;;4993062;28;20399;-84
2022/11/04 08:55:50;;;;;;;1.88;1.10;;;;;;;;;;5012727;28;20037;-86
2022/11/04 08:58:16;;;;;;;1.92;1.05;;;;;;;;;;4992484;28;20298;-85
2022/11/04 09:00:41;;;;;;;1.00;0.77;;;;;;;;;;5012299;28;20032;-86
2022/11/04 09:03:07;;;;;;;2.00;1.17;;;;;;;;;;4992733;28;20086;-84
2022/11/04 09:05:33;;;;;;;1.50;1.10;;;;;;;;;;4996215;28;20048;-86
2022/11/04 09:07:59;;;;;;;1.58;0.90;;;;;;;;;;4994317;28;20026;-85
2022/11/04 09:10:25;;;;;;;3.60;0.90;;;;;;;;;;5009742;28;20026;-86
2022/11/04 09:12:50;;;;;;;2.50;1.00;;;;;;;;;;5012504;28;20105;-85
2022/11/04 09:15:16;;;;;;;4.05;1.20;;;;;;;;;;4995625;28;20068;-86
2022/11/04 09:17:43;;;;;;;4.97;0.98;;;;;;;;;;5015533;28;20109;-85
2022/11/04 09:20:09;;;;;;;2.70;0.90;;;;;;;;;;5015194;28;20468;-84
2022/11/04 09:22:34;;;;;;;4.30;0.90;;;;;;;;;;4997199;28;20026;-84
2022/11/04 09:25:00;;;;;;;1.70;0.93;;;;;;;;;;5000680;28;20050;-85
2022/11/04 09:27:25;;;;;;;6.10;1.17;;;;;;;;;;5013260;28;20026;-86
2022/11/04 09:29:51;;;;;;;2.83;0.77;;;;;;;;;;5014860;28;20129;-83
2022/11/04 09:32:16;;;;;;;1.45;0.85;;;;;;;;;;4996560;28;20391;-85
2022/11/04 09:34:41;;;;;;;1.48;1.02;;;;;;;;;;5005365;28;20104;-85
2022/11/04 09:37:07;;;;;;;0.65;0.60;;;;;;;;;;4996300;28;20489;-84
2022/11/04 09:39:32;;;;;;;1.27;1.13;;;;;;;;;;4996753;28;20441;-84
2022/11/04 09:42:21;;;;;;;4.57;1.08;;;;;;;;;;4996312;28;20017;-83
2022/11/04 09:44:57;;;;;;;4.25;0.95;;;;;;;;;;4996744;28;20030;-86
2022/11/04 09:47:24;;;;;;;1.27;0.77;;;;;;;;;;4996544;28;20026;-87
2022/11/04 09:49:54;;;;;;;2.85;0.60;;;;;;;;;;5014081;28;20025;-84
2022/11/04 09:52:25;;;;;;;1.27;0.82;;;;;;;;;;5013938;28;20022;-84
2022/11/04 09:54:57;;;;;;;1.13;1.00;;;;;;;;;;5011202;28;20022;-85
2022/11/04 09:57:23;;;;;;;2.20;0.85;;;;;;;;;;5009325;28;20033;-85
2022/11/04 09:59:48;;;;;;;2.92;0.85;;;;;;;;;;4994661;28;20025;-84
2022/11/04 10:02:35;;;;;;;3.08;1.00;;;;;;;;;;4994716;28;20018;-85
2022/11/04 10:05:25;;;;;;;2.38;0.60;;;;;;;;;;4997066;28;20076;-89
2022/11/04 10:08:12;;;;;;;1.92;0.98;;;;;;;;;;5011308;28;20045;-87
2022/11/04 10:10:41;;;;;;;2.70;0.90;;;;;;;;;;5011316;28;20157;-87
2022/11/04 10:13:09;;;;;;;1.95;1.08;;;;;;;;;;5014157;28;20017;-88
2022/11/04 10:15:44;;;;;;;2.53;0.82;;;;;;;;;;5015277;28;20018;-84
2022/11/04 10:18:23;;;;;;;1.92;0.82;;;;;;;;;;4999357;28;20022;-85
2022/11/04 10:20:59;;;;;;;4.65;1.02;;;;;;;;;;4998031;28;20014;-85
2022/11/04 10:23:44;;;;;;;1.75;0.90;;;;;;;;;;4990576;28;20037;-85
2022/11/04 10:26:23;;;;;;;1.33;0.80;;;;;;;;;;5033866;28;20010;-83
2022/11/04 10:28:57;;;;;;;4.72;1.67;;;;;;;;;;5021403;28;20013;-90
2022/11/04 10:31:23;;;;;;;1.17;0.80;;;;;;;;;;5038373;28;20077;-89
2022/11/04 10:33:57;;;;;;;1.58;1.05;;;;;;;;;;5017933;28;20447;-86
2022/11/04 10:36:24;;;;;;;2.45;0.80;;;;;;;;;;5014243;28;20030;-87
2022/11/04 10:38:52;;;;;;;2.78;0.70;;;;;;;;;;4997093;28;20037;-86
2022/11/04 10:41:17;;;;;;;5.18;0.98;;;;;;;;;;5014378;28;20040;-87
2022/11/04 10:43:43;;;;;;;4.13;1.02;;;;;;;;;;5016608;28;20419;-87
2022/11/04 10:46:30;;;;;;;6.13;1.02;;;;;;;;;;4992906;28;20053;-86
2022/11/04 10:49:33;;;;;;;0.85;0.75;;;;;;;;;;4992244;28;20030;-85
2022/11/04 10:51:59;;;;;;;4.00;1.10;;;;;;;;;;5000509;28;20017;-86
2022/11/04 10:54:25;;;;;;;2.63;0.60;;;;;;;;;;4995085;28;20032;-86
2022/11/04 10:56:55;;;;;;;1.70;0.93;;;;;;;;;;5013069;28;20388;-85
2022/11/04 10:59:30;;;;;;;4.70;1.20;;;;;;;;;;4994945;28;20492;-86
2022/11/04 11:02:01;;;;;;;4.25;1.00;;;;;;;;;;4996232;28;20038;-85
2022/11/04 11:04:32;;;;;;;3.45;0.70;;;;;;;;;;5017114;28;20026;-87
2022/11/04 11:06:59;;;;;;;3.17;0.87;;;;;;;;;;5023226;28;20116;-86
2022/11/04 11:09:28;;;;;;;0.85;0.85;;;;;;;;;;4998624;28;20029;-85
2022/11/04 11:12:12;;;;;;;4.25;0.98;;;;;;;;;;5000373;28;20057;-84
2022/11/04 11:14:38;;;;;;;3.50;0.80;;;;;;;;;;4999826;28;20030;-85
2022/11/04 11:17:17;;;;;;;0.80;0.75;;;;;;;;;;4999730;28;20435;-84
2022/11/04 11:19:55;;;;;;;2.00;0.63;;;;;;;;;;5000306;28;20056;-84
2022/11/04 11:22:41;;;;;;;1.80;0.82;;;;;;;;;;5019046;28;20480;-86
2022/11/04 11:25:32;;;;;;;3.60;0.93;;;;;;;;;;5005934;28;20041;-87
2022/11/04 11:27:59;;;;;;;2.33;0.65;;;;;;;;;;5019358;28;20018;-86
2022/11/04 11:30:40;;;;;;;2.28;0.95;;;;;;;;;;5019247;28;20029;-86
2022/11/04 11:33:16;;;;;;;7.80;0.83;;;;;;;;;;5018676;28;20018;-86
2022/11/04 11:35:50;;;;;;;1.77;1.00;;;;;;;;;;4993927;28;20409;-86
2022/11/04 11:38:22;;;;;;;4.43;1.00;;;;;;;;;;4993754;28;20041;-86
2022/11/04 11:40:49;;;;;;;;;;;;;;;;;;5010891;28;20096;-85
2022/11/04 11:43:24;;;;;;;2.03;0.88;;;;;;;;;;5012441;28;20013;-86
2022/11/04 11:45:50;;;;;;;5.25;1.15;;;;;;;;;;5013637;28;20454;-88
2022/11/04 11:48:39;;;;;;;2.78;0.80;;;;;;;;;;5016861;28;20025;-88
2022/11/04 11:51:05;;;;;;;2.30;0.93;;;;;;;;;;4990397;28;20072;-87
2022/11/04 11:53:34;;;;;;;2.53;0.88;;;;;;;;;;5005308;28;20022;-85
2022/11/04 11:56:23;;;;;;;2.63;1.30;;;;;;;;;;5001431;28;20025;-88
2022/11/04 11:58:57;;;;;;;1.08;0.90;;;;;;;;;;5018113;28;20508;-86
2022/11/04 12:01:41;;;;;;;3.72;1.60;;;;;;;;;;4998688;28;20025;-87
2022/11/04 12:04:07;;;;;;;1.75;0.82;;;;;;;;;;5004296;28;20065;-87
2022/11/04 12:06:48;;;;;;;4.90;0.80;;;;;;;;;;4998852;28;20396;-86
2022/11/04 12:09:35;;;;;;;1.33;0.82;;;;;;;;;;5013535;28;20829;-85
2022/11/04 12:12:17;;;;;;;1.95;0.70;;;;;;;;;;5011892;28;20033;-87
2022/11/04 12:14:58;;;;;;;6.03;1.02;;;;;;;;;;5010164;28;20026;-87
2022/11/04 12:17:39;;;;;;;5.40;1.30;;;;;;;;;;4995534;28;20164;-85
2022/11/04 12:20:14;;;;;;;1.63;0.80;;;;;;;;;;5012346;28;20037;-86
2022/11/04 12:22:55;;;;;;;2.83;0.60;;;;;;;;;;5012096;28;20030;-86
2022/11/04 12:25:50;;;;;;;1.73;0.77;;;;;;;;;;5008245;28;20037;-87
2022/11/04 12:28:44;;;;;;;2.13;1.23;;;;;;;;;;5008383;28;20014;-88
2022/11/04 12:31:16;;;;;;;7.78;1.10;;;;;;;;;;5015578;28;20021;-84
2022/11/04 12:34:05;;;;;;;1.75;0.73;;;;;;;;;;5000176;28;20025;-84
2022/11/04 12:36:44;;;;;;;1.05;0.75;;;;;;;;;;5004305;28;20029;-85
2022/11/04 12:39:13;;;;;;;3.83;0.88;;;;;;;;;;4996528;28;20089;-86
2022/11/04 12:42:00;;;;;;;4.35;0.70;;;;;;;;;;4998888;28;20028;-83
2022/11/04 12:44:50;;;;;;;6.50;0.88;;;;;;;;;;4995949;28;20033;-85
2022/11/04 12:47:31;;;;;;;2.40;0.73;;;;;;;;;;5012229;28;20052;-86
2022/11/04 12:50:28;;;;;;;9.90;1.07;;;;;;;;;;5014037;28;20057;-87
2022/11/04 12:53:38;;;;;;;4.03;1.02;;;;;;;;;;5000075;28;20271;-88
2022/11/04 12:56:12;;;;;;;5.38;0.85;;;;;;;;;;4971499;28;20042;-86
2022/11/04 12:58:42;;;;;;;1.33;0.77;;;;;;;;;;5003704;28;20093;-86
2022/11/04 13:01:16;;;;;;;4.85;1.10;;;;;;;;;;5016193;28;20064;-85
2022/11/04 13:04:08;;;;;;;1.75;0.77;;;;;;;;;;5001140;28;20129;-84
2022/11/04 13:06:44;;;;;;;4.53;1.10;;;;;;;;;;5003474;28;20112;-85
2022/11/04 13:09:20;;;;;;;3.72;0.93;;;;;;;;;;5003701;28;20436;-85
2022/11/04 13:11:53;;;;;;;3.55;0.90;;;;;;;;;;5014912;28;20033;-84
2022/11/04 13:14:34;;;;;;;1.83;0.88;;;;;;;;;;5016554;28;20057;-85
2022/11/04 13:17:05;;;;;;;4.30;1.75;;;;;;;;;;4991188;28;20034;-85
2022/11/04 13:19:39;;;;;;;3.20;0.82;;;;;;;;;;5015301;28;20026;-84
2022/11/04 13:22:10;;;;;;;1.15;0.80;;;;;;;;;;5011789;28;20018;-85
2022/11/04 13:24:39;;;;;;;4.95;1.10;;;;;;;;;;5002170;28;20040;-85
2022/11/04 13:27:27;;;;;;;11.82;1.48;;;;;;;;;;5015178;28;20480;-83
2022/11/04 13:30:40;;;;;;;1.42;0.85;;;;;;;;;;5028269;28;20018;-85
2022/11/04 13:33:14;;;;;;;0.73;0.63;;;;;;;;;;4978915;28;20035;-86
2022/11/04 13:36:00;;;;;;;3.83;0.95;;;;;;;;;;4954675;28;20049;-84
2022/11/04 13:38:35;;;;;;;4.03;0.95;;;;;;;;;;4995692;28;20042;-83
2022/11/04 13:41:22;;;;;;;2.42;1.00;;;;;;;;;;4999802;28;20157;-85
2022/11/04 13:44:02;;;;;;;5.03;1.20;;;;;;;;;;5013752;28;20453;-84
2022/11/04 13:46:30;;;;;;;3.85;1.30;;;;;;;;;;5006205;28;20026;-85
2022/11/04 13:49:04;;;;;;;3.70;1.02;;;;;;;;;;5020553;28;20419;-87
2022/11/04 13:52:00;;;;;;;1.42;0.80;;;;;;;;;;5008279;28;20033;-88
2022/11/04 13:54:52;;;;;;;4.65;0.95;;;;;;;;;;5001588;28;20060;-87
2022/11/04 13:57:28;;;;;;;4.40;1.25;;;;;;;;;;5019543;28;20205;-88
2022/11/04 14:00:12;;;;;;;1.48;0.95;;;;;;;;;;5022443;28;20041;-88
2022/11/04 14:02:51;;;;;;;1.45;1.00;;;;;;;;;;5008800;28;20030;-89
2022/11/04 14:05:26;;;;;;;3.65;1.27;;;;;;;;;;4985731;28;20034;-88
2022/11/04 14:08:00;;;;;;;4.85;1.65;;;;;;;;;;5011338;28;20050;-89
2022/11/04 14:10:41;;;;;;;3.88;0.63;;;;;;;;;;5004492;28;20026;-87
2022/11/04 14:13:41;;;;;;;2.55;0.90;;;;;;;;;;5003242;28;20025;-87
2022/11/04 14:16:16;;;;;;;1.45;0.80;;;;;;;;;;5021843;28;20038;-87
2022/11/04 14:18:46;;;;;;;0.82;0.70;;;;;;;;;;5029861;28;20034;-87
2022/11/04 14:21:16;;;;;;;2.75;1.02;;;;;;;;;;5021534;28;20028;-87
2022/11/04 14:23:45;;;;;;;4.30;0.93;;;;;;;;;;5000163;28;20065;-88
2022/11/04 14:26:13;;;;;;;0.70;0.65;;;;;;;;;;5019708;28;20025;-85
2022/11/04 14:28:42;;;;;;;0.52;0.52;;;;;;;;;;5022045;28;20026;-87
2022/11/04 14:31:11;;;;;;;2.00;0.88;;;;;;;;;;5021667;28;20033;-86
2022/11/04 14:33:52;;;;;;;2.53;0.60;;;;;;;;;;5002047;28;20165;-86
2022/11/04 14:36:23;;;;;;;2.30;1.05;;;;;;;;;;5000332;28;20036;-86
2022/11/04 14:39:10;;;;;;;0.68;0.50;;;;;;;;;;5019572;28;20160;-87
2022/11/04 14:41:39;;;;;;;0.77;0.60;;;;;;;;;;5006448;28;20034;-84
2022/11/04 14:44:35;;;;;;;0.82;0.52;;;;;;;;;;5002763;28;20357;-87
2022/11/04 14:47:14;;;;;;;4.43;1.00;;;;;;;;;;4989927;28;20077;-88
2022/11/04 14:49:47;;;;;;;3.22;1.30;;;;;;;;;;5012601;28;20041;-87
2022/11/04 14:52:21;;;;;;;1.02;1.00;;;;;;;;;;5001085;28;20052;-85
2022/11/04 14:54:48;;;;;;;0.85;0.52;;;;;;;;;;5001364;28;20033;-84
2022/11/04 14:57:20;;;;;;;0.50;0.50;;;;;;;;;;5015730;28;20026;-87
2022/11/04 14:59:46;;;;;;;3.58;0.80;;;;;;;;;;5007072;28;20383;-87
2022/11/04 15:02:27;;;;;;;0.50;0.40;;;;;;;;;;5003023;28;20030;-86
2022/11/04 15:05:00;;;;;;;1.17;0.50;;;;;;;;;;5002164;28;20025;-87
2022/11/04 15:07:34;;;;;;;0.35;0.35;;;;;;;;;;4999289;28;20093;-85
2022/11/04 15:10:01;;;;;;;1.00;0.60;;;;;;;;;;4996414;28;20022;-87
2022/11/04 15:15:23;;;;;;;4.78;0.63;;;;;;;;;;5034703;28;20036;-85
2022/11/04 15:17:48;;;;;;;0.50;0.50;;;;;;;;;;5015614;28;20057;-87
2022/11/04 15:20:25;;;;;;;2.50;0.57;;;;;;;;;;4998230;28;20037;-87
2022/11/04 15:22:52;;;;;;;1.77;0.40;;;;;;;;;;5012622;28;20036;-87
2022/11/04 15:25:18;;;;;;;1.67;0.50;;;;;;;;;;5015873;28;20045;-87
2022/11/04 15:27:44;;;;;;;0.57;0.57;;;;;;;;;;4995533;28;20034;-86
2022/11/04 15:30:30;;;;;;;5.90;0.90;;;;;;;;;;5014528;28;20056;-83
2022/11/04 15:35:45;;;;;;;5.22;0.73;;;;;;;;;;5001446;28;20050;-85
2022/11/04 15:38:12;;;;;;;3.95;1.73;;;;;;;;;;5008002;28;20030;-86
2022/11/04 15:40:38;;;;;;;1.77;1.35;;;;;;;;;;4992675;28;20040;-85
2022/11/04 15:43:05;;;;;;;4.93;1.60;;;;;;;;;;5001843;28;20037;-85
2022/11/04 15:45:38;;;;;;;3.70;1.73;;;;;;;;;;4998108;28;20428;-87
2022/11/04 15:48:22;;;;;;;1.38;0.93;;;;;;;;;;4978578;28;20033;-86
2022/11/04 15:51:13;;;;;;;1.40;1.05;;;;;;;;;;5005528;28;20040;-85
2022/11/04 15:54:04;;;;;;;1.50;1.00;;;;;;;;;;4997990;28;20042;-87
2022/11/04 15:56:34;;;;;;;2.53;0.80;;;;;;;;;;4998740;28;20037;-85
2022/11/04 15:59:00;;;;;;;2.58;0.70;;;;;;;;;;5000304;28;20046;-85
2022/11/04 16:01:27;;;;;;;6.30;1.10;;;;;;;;;;5004303;28;20024;-85
2022/11/04 16:03:58;;;;;;;4.85;1.00;;;;;;;;;;5007077;28;20033;-87
2022/11/04 16:06:38;;;;;;;1.50;0.80;;;;;;;;;;5006840;28;20037;-85
2022/11/04 16:09:10;;;;;;;2.22;1.00;;;;;;;;;;5006845;28;20037;-85
2022/11/04 16:11:36;;;;;;;0.95;0.75;;;;;;;;;;4988000;28;20021;-87
2022/11/04 16:14:34;;;;;;;3.72;1.20;;;;;;;;;;5003828;28;20091;-87
2022/11/04 16:17:00;;;;;;;7.13;1.13;;;;;;;;;;4946318;28;20038;-86
2022/11/04 16:19:27;;;;;;;1.00;1.00;;;;;;;;;;4989815;28;20092;-86
2022/11/04 16:22:05;;;;;;;0.88;0.88;;;;;;;;;;5002824;28;20029;-86
2022/11/04 16:24:33;;;;;;;1.23;0.68;;;;;;;;;;5010627;28;20030;-86
2022/11/04 16:27:00;;;;;;;2.63;1.15;;;;;;;;;;5009586;28;20060;-86
2022/11/04 16:29:33;;;;;;;3.72;1.02;;;;;;;;;;5009699;28;20435;-86
2022/11/04 16:32:28;;;;;;;2.95;1.20;;;;;;;;;;5009272;28;20136;-86
2022/11/04 16:34:58;;;;;;;3.33;1.17;;;;;;;;;;5011001;28;20460;-85
2022/11/04 16:37:25;;;;;;;5.38;2.28;;;;;;;;;;5010098;28;20478;-86
2022/11/04 16:39:51;;;;;;;5.40;1.27;;;;;;;;;;4992878;28;20170;-85
2022/11/04 16:42:16;;;;;;;3.33;1.52;;;;;;;;;;4992826;28;20480;-87
2022/11/04 16:44:57;;;;;;;1.23;1.15;;;;;;;;;;5010517;28;20029;-86
2022/11/04 16:47:27;;;;;;;1.63;1.33;;;;;;;;;;5011682;28;20029;-88
2022/11/04 16:49:52;;;;;;;1.55;1.45;;;;;;;;;;5004533;28;20029;-87
2022/11/04 16:52:21;;;;;;;1.70;1.25;;;;;;;;;;4987950;28;20024;-85
2022/11/04 16:55:40;;;;;;;1.85;1.60;;;;;;;;;;5013495;28;20476;-87
2022/11/04 16:58:06;;;;;;;4.75;1.48;;;;;;;;;;4993325;28;20023;-86
2022/11/04 17:00:37;;;;;;;4.78;1.45;;;;;;;;;;5004952;28;20036;-83
2022/11/04 17:03:21;;;;;;;2.28;1.30;;;;;;;;;;4994113;28;20763;-84
2022/11/04 17:05:50;;;;;;;1.05;1.05;;;;;;;;;;5010809;28;20620;-86
2022/11/04 17:08:16;;;;;;;3.08;1.33;;;;;;;;;;5004979;28;20388;-86
2022/11/04 17:10:43;;;;;;;2.40;1.25;;;;;;;;;;5010762;28;20097;-85
2022/11/04 17:13:09;;;;;;;2.60;1.20;;;;;;;;;;5007935;28;20026;-86
2022/11/04 17:15:38;;;;;;;3.28;1.38;;;;;;;;;;5014744;28;20274;-84
2022/11/04 17:18:04;;;;;;;3.90;1.45;;;;;;;;;;4995179;28;20132;-85
2022/11/04 17:20:30;;;;;;;4.10;1.45;;;;;;;;;;5011597;28;20034;-86
2022/11/04 17:22:58;;;;;;;4.28;1.95;;;;;;;;;;5011968;28;20476;-85
2022/11/04 17:25:26;;;;;;;2.42;1.30;;;;;;;;;;5003285;28;20065;-86
2022/11/04 17:27:52;;;;;;;3.83;1.85;;;;;;;;;;4986752;28;20033;-87
2022/11/04 17:30:20;;;;;;;4.70;1.35;;;;;;;;;;4986478;28;20137;-89
2022/11/04 17:32:46;;;;;;;4.35;1.60;;;;;;;;;;4998125;28;20026;-86
2022/11/04 17:35:12;;;;;;;9.70;2.00;;;;;;;;;;5022735;28;20040;-87
2022/11/04 17:37:37;;;;;;;9.20;1.80;;;;;;;;;;5021328;28;20030;-88
2022/11/04 17:40:04;;;;;;;2.92;1.70;;;;;;;;;;5018605;28;20030;-86
2022/11/04 17:45:17;;;;;;;4.80;1.83;;;;;;;;;;5030181;28;20037;-87
2022/11/04 17:47:42;;;;;;;4.45;2.20;;;;;;;;;;5001978;28;20503;-86
2022/11/04 17:50:11;;;;;;;6.18;2.35;;;;;;;;;;5003478;28;20014;-88
2022/11/04 17:52:37;;;;;;;2.28;1.70;;;;;;;;;;5017521;28;20025;-87
2022/11/04 17:55:04;;;;;;;3.45;1.70;;;;;;;;;;5017124;28;20021;-87
2022/11/04 17:57:32;;;;;;;5.45;1.88;;;;;;;;;;5018169;28;20064;-88
2022/11/04 17:59:57;;;;;;;7.25;2.15;;;;;;;;;;5011227;28;20030;-87
2022/11/04 20:59:46;;;;;;;6.65;2.53;;;;;;;;;;520373;26;20312;-84
2022/11/04 21:02:21;;;;;;;3.75;2.22;;;;;;;;;;5000235;28;20477;-85
2022/11/04 21:04:58;;;;;;;4.93;2.50;;;;;;;;;;4983774;28;20400;-85
2022/11/04 21:07:35;;;;;;;8.75;2.50;;;;;;;;;;4995069;28;20026;-86
2022/11/04 21:17:16;;;;;;;7.88;2.38;;;;;;;;;;4960136;28;20049;-88
2022/11/04 21:26:39;;;;;;;2.47;2.25;;;;;;;;;;4957761;29;20055;-86
2022/11/04 21:33:15;;;;;;;2.92;2.60;;;;;;;;;;4914275;29;20080;-88
2022/11/04 21:35:44;;;;;;;4.78;2.75;;;;;;;;;;4877450;29;20032;-88
2022/11/04 21:38:18;;;;;;;8.10;2.63;;;;;;;;;;4956295;29;20034;-88
2022/11/04 21:56:12;;;;;;;5.38;3.05;;;;;;;;;;4987519;28;20468;-86
2022/11/04 21:58:38;;;;;;;5.32;2.90;;;;;;;;;;4975896;28;20053;-86
2022/11/04 22:01:06;;;;;;;6.47;2.92;;;;;;;;;;4991471;28;20423;-85
2022/11/04 22:03:31;;;;;;;3.42;2.60;;;;;;;;;;4971201;28;20035;-86
2022/11/04 22:06:02;;;;;;;5.35;2.72;;;;;;;;;;4994163;28;20026;-85
2022/11/04 22:08:29;;;;;;;5.18;2.72;;;;;;;;;;4975445;28;20034;-86
2022/11/04 22:10:55;;;;;;;5.38;3.30;;;;;;;;;;4981392;28;20026;-85
2022/11/04 22:13:22;;;;;;;6.80;2.83;;;;;;;;;;4986624;28;20698;-86
2022/11/04 22:16:00;;;;;;;14.85;3.88;;;;;;;;;;4983894;28;20073;-86
2022/11/04 22:18:30;;;;;;;7.07;2.85;;;;;;;;;;4985443;28;20554;-86
2022/11/04 22:20:56;;;;;;;4.90;3.00;;;;;;;;;;4995909;28;20419;-85
2022/11/04 22:23:22;;;;;;;5.15;2.85;;;;;;;;;;4985444;28;20085;-86
2022/11/04 22:25:48;;;;;;;7.75;2.78;;;;;;;;;;4974998;28;20023;-85
2022/11/04 22:28:16;;;;;;;8.50;3.60;;;;;;;;;;4964229;28;20110;-86
2022/11/04 22:30:42;;;;;;;4.75;3.13;;;;;;;;;;4991350;28;20026;-87
2022/11/04 22:33:07;;;;;;;4.43;3.30;;;;;;;;;;5000684;28;20092;-87
2022/11/04 22:35:33;;;;;;;6.85;3.30;;;;;;;;;;4994132;28;20092;-85
2022/11/04 22:37:58;;;;;;;6.53;3.10;;;;;;;;;;4980248;28;20086;-85
2022/11/04 22:40:24;;;;;;;4.95;2.60;;;;;;;;;;5008677;28;20093;-86
2022/11/04 22:42:50;;;;;;;7.65;3.03;;;;;;;;;;4994854;28;20061;-86
2022/11/04 22:45:16;;;;;;;5.38;3.03;;;;;;;;;;4993150;28;20031;-87
2022/11/04 22:47:41;;;;;;;7.47;3.15;;;;;;;;;;4988452;28;21157;-86
2022/11/04 22:50:07;;;;;;;5.57;2.78;;;;;;;;;;4987512;28;20034;-87
2022/11/04 22:52:32;;;;;;;4.60;2.60;;;;;;;;;;4973653;28;20049;-87
2022/11/04 22:54:58;;;;;;;3.92;2.55;;;;;;;;;;4983136;28;20026;-85
2022/11/04 22:57:23;;;;;;;6.10;2.50;;;;;;;;;;4992326;28;20490;-87
2022/11/04 22:59:48;;;;;;;3.53;2.42;;;;;;;;;;4977013;28;20026;-87
2022/11/04 23:02:14;;;;;;;5.75;2.65;;;;;;;;;;4971891;28;20033;-85
2022/11/04 23:04:39;;;;;;;4.38;2.90;;;;;;;;;;4996201;28;20731;-87
2022/11/04 23:07:05;;;;;;;7.47;2.90;;;;;;;;;;4977284;28;20748;-85
2022/11/04 23:09:33;;;;;;;6.65;2.60;;;;;;;;;;4974612;28;20034;-85
2022/11/04 23:20:28;;;;;;;3.55;2.55;;;;;;;;;;4987289;28;20041;-84
2022/11/04 23:25:40;;;;;;;5.25;2.42;;;;;;;;;;4986556;28;20282;-85
2022/11/04 23:30:51;;;;;;;6.63;2.60;;;;;;;;;;4981355;28;20748;-86
2022/11/04 23:33:16;;;;;;;4.55;2.40;;;;;;;;;;4983974;28;20034;-86
2022/11/04 23:38:29;;;;;;;8.38;2.42;;;;;;;;;;4993748;28;20065;-85
2022/11/04 23:43:41;;;;;;;4.55;2.70;;;;;;;;;;4996756;28;20076;-84
